< < Back
Terminal Aerodrome Forecast


Current Version              Previous Versions:   1  2  3  4  5  6  7  8  9  

Terminal Aerodrome Forecast

067
FTUS42 KCHS 302325 AAB
TAFSAV
TAF AMD
KSAV 302325Z 3023/0124 23006KT P6SM FEW040 BKN100
     FM011400 26010KT P6SM SCT040=

Latest METAR

550
SAUS80 KWBC 011200 RRH
MTRSAV
METAR KSAV 011153Z 25009KT 10SM CLR 23/19 A3006 RMK AO2 SLP178 T02280194
10228 20217 53011


USA.gov is the U.S. government's official web portal to all federal, state and local government web resources and services.